Time;durP1;ratioP1;P1;durP2;ratioP2;P2;SDS_P1;SDS_P2;PMS_P1;PMS_P2;Temp;Humidity;BMP_temperature;BMP_pressure;BME280_temperature;BME280_humidity;BME280_pressure;Samples;Min_cycle;Max_cycle;Signal;HPM_P1;HPM_P2
2022/02/21 00:01:30;;;;;;;52.80;23.62;;;;;;;2.71;78.09;99811.80;1744665;82;21347;-79
2022/02/21 00:04:35;;;;;;;59.55;29.55;;;;;;;2.67;77.99;99814.41;1744319;82;21370;-79
2022/02/21 00:07:41;;;;;;;64.47;31.27;;;;;;;2.59;77.79;99815.63;1773180;81;21232;-79
2022/02/21 00:10:48;;;;;;;57.00;27.35;;;;;;;2.47;77.87;99813.51;1771547;81;21228;-78
2022/02/21 00:13:55;;;;;;;49.48;23.35;;;;;;;2.35;77.87;99815.08;1772085;81;21342;-78
2022/02/21 00:17:02;;;;;;;41.40;22.00;;;;;;;2.25;78.16;99815.89;1771904;81;21800;-78
2022/02/21 00:20:07;;;;;;;33.38;19.67;;;;;;;2.16;78.32;99809.11;1766643;81;21305;-78
2022/02/21 00:23:14;;;;;;;38.88;19.65;;;;;;;2.05;78.46;99807.36;1734144;82;21920;-78
2022/02/21 00:26:20;;;;;;;36.75;19.42;;;;;;;1.95;78.72;99809.16;1734344;82;21325;-78
2022/02/21 00:29:25;;;;;;;44.98;20.10;;;;;;;1.87;78.96;99802.21;1734080;82;21270;-78
2022/02/21 00:32:31;;;;;;;46.00;19.90;;;;;;;1.82;79.36;99801.76;1735520;82;21191;-78
2022/02/21 00:35:37;;;;;;;37.88;20.08;;;;;;;1.79;79.56;99805.59;1750921;81;21356;-78
2022/02/21 00:38:42;;;;;;;43.90;21.15;;;;;;;1.73;79.51;99802.91;1775459;81;21317;-78
2022/02/21 00:41:49;;;;;;;44.90;20.35;;;;;;;1.67;79.63;99800.75;1774525;81;21879;-78
2022/02/21 00:44:56;;;;;;;39.53;20.68;;;;;;;1.58;79.83;99796.64;1773762;81;21865;-78
2022/02/21 00:48:01;;;;;;;43.78;21.70;;;;;;;1.49;80.10;99797.78;1776006;81;21297;-78
2022/02/21 00:51:05;;;;;;;48.85;22.42;;;;;;;1.47;80.37;99788.14;1771238;80;21347;-78
2022/02/21 00:54:10;;;;;;;59.50;24.07;;;;;;;1.42;80.51;99780.44;1768071;81;21768;-80
2022/02/21 00:57:16;;;;;;;50.28;24.45;;;;;;;1.35;80.79;99781.94;1768720;81;21331;-80
2022/02/21 01:00:24;;;;;;;54.45;24.32;;;;;;;1.35;81.14;99782.43;1769590;81;21889;-78
2022/02/21 01:03:30;;;;;;;58.20;24.45;;;;;;;1.36;81.05;99788.17;1768002;81;21204;-78
2022/02/21 01:06:37;;;;;;;53.33;25.60;;;;;;;1.33;80.97;99781.72;1768823;81;21198;-78
2022/02/21 01:09:43;;;;;;;53.58;26.70;;;;;;;1.31;81.28;99777.78;1767551;80;21257;-78
2022/02/21 01:12:48;;;;;;;64.03;28.27;;;;;;;1.32;81.55;99779.98;1767735;81;21375;-78
2022/02/21 01:15:54;;;;;;;62.05;29.90;;;;;;;1.32;81.59;99784.02;1769108;81;21733;-78
2022/02/21 01:19:00;;;;;;;75.80;38.70;;;;;;;1.31;81.69;99775.59;1769096;81;21300;-78
2022/02/21 01:22:06;;;;;;;72.30;37.35;;;;;;;1.29;81.73;99767.64;1769326;81;21368;-78
2022/02/21 01:25:14;;;;;;;65.62;32.65;;;;;;;1.28;81.77;99761.41;1768099;81;21301;-78
2022/02/21 01:28:19;;;;;;;67.50;31.05;;;;;;;1.25;81.85;99758.96;1769343;81;21943;-78
2022/02/21 01:31:24;;;;;;;60.73;29.52;;;;;;;1.22;81.90;99761.94;1769427;81;21388;-78
2022/02/21 01:34:30;;;;;;;64.10;29.77;;;;;;;1.20;81.98;99761.69;1768705;81;22130;-78
2022/02/21 01:37:35;;;;;;;67.85;33.28;;;;;;;1.17;82.09;99754.70;1769068;81;21695;-78
2022/02/21 01:40:41;;;;;;;67.97;33.05;;;;;;;1.12;81.88;99754.24;1769112;81;21825;-77
2022/02/21 01:43:47;;;;;;;70.12;34.88;;;;;;;1.06;82.00;99745.34;1767486;81;21756;-78
2022/02/21 01:46:52;;;;;;;74.65;36.93;;;;;;;1.02;81.95;99754.66;1768924;81;21884;-78
2022/02/21 01:49:58;;;;;;;72.95;34.63;;;;;;;0.99;82.09;99754.45;1769031;81;21364;-78
2022/02/21 01:53:03;;;;;;;67.72;33.13;;;;;;;1.00;82.26;99753.95;1769516;80;21336;-78
2022/02/21 01:56:11;;;;;;;68.78;33.02;;;;;;;0.99;82.18;99760.33;1771538;81;21297;-78
2022/02/21 01:59:16;;;;;;;65.37;31.45;;;;;;;0.97;82.18;99762.27;1771450;81;21297;-80
2022/02/21 02:02:22;;;;;;;72.97;33.33;;;;;;;0.97;82.30;99766.31;1771641;81;21359;-78
2022/02/21 02:05:27;;;;;;;69.90;34.75;;;;;;;0.99;82.41;99767.06;1770577;81;22531;-78
2022/02/21 02:08:32;;;;;;;69.25;34.43;;;;;;;1.04;82.51;99766.17;1756768;81;21347;-78
2022/02/21 02:11:39;;;;;;;75.20;36.35;;;;;;;1.10;82.57;99760.27;1771677;81;21293;-78
2022/02/21 02:14:47;;;;;;;71.82;32.73;;;;;;;1.16;82.69;99760.23;1771112;81;21331;-78
2022/02/21 02:17:53;;;;;;;69.37;33.80;;;;;;;1.21;82.69;99757.50;1771825;81;21190;-78
2022/02/21 02:20:58;;;;;;;72.30;35.73;;;;;;;1.23;82.75;99760.95;1753866;81;21845;-78
2022/02/21 02:24:04;;;;;;;67.67;33.05;;;;;;;1.25;82.88;99760.31;1741214;82;21226;-78
2022/02/21 02:27:09;;;;;;;79.35;36.13;;;;;;;1.26;82.64;99759.31;1740358;82;21321;-78
2022/02/21 02:30:15;;;;;;;70.42;33.95;;;;;;;1.23;82.47;99766.33;1739757;82;21324;-78
2022/02/21 02:33:20;;;;;;;65.85;33.42;;;;;;;1.20;82.38;99767.92;1739675;82;21594;-78
2022/02/21 02:36:27;;;;;;;68.05;33.18;;;;;;;1.13;82.28;99770.80;1761810;81;21849;-79
2022/02/21 02:39:33;;;;;;;64.05;32.08;;;;;;;1.06;82.13;99766.04;1771702;81;21340;-79
2022/02/21 02:42:31;;;;;;;59.58;32.03;;;;;;;0.99;82.23;99774.64;1771738;81;21308;-79
2022/02/21 02:45:37;;;;;;;55.78;28.10;;;;;;;0.95;82.27;99776.38;1771296;81;21312;-79
2022/02/21 02:48:42;;;;;;;52.35;26.60;;;;;;;0.88;82.15;99780.05;1770400;81;21880;-79
2022/02/21 02:51:47;;;;;;;54.60;26.15;;;;;;;0.79;82.16;99775.42;1770290;81;21335;-79
2022/02/21 02:54:53;;;;;;;53.55;25.90;;;;;;;0.71;82.44;99776.08;1771762;81;21387;-79
2022/02/21 02:57:59;;;;;;;51.98;25.68;;;;;;;0.63;82.36;99773.66;1770388;81;21301;-79
2022/02/21 03:01:03;;;;;;;56.30;26.68;;;;;;;0.50;82.45;99773.30;1770201;81;21773;-78
2022/02/21 03:04:09;;;;;;;60.67;29.10;;;;;;;0.39;82.61;99769.30;1771685;81;21492;-79
2022/02/21 03:07:15;;;;;;;54.27;25.57;;;;;;;0.32;82.82;99769.41;1771781;81;21848;-79
2022/02/21 03:10:20;;;;;;;65.30;26.05;;;;;;;0.28;83.18;99764.40;1771602;81;21824;-79
2022/02/21 03:13:25;;;;;;;57.60;28.05;;;;;;;0.24;83.43;99767.36;1771580;81;21320;-78
2022/02/21 03:16:30;;;;;;;57.85;30.65;;;;;;;0.21;83.67;99759.52;1770621;81;21222;-78
2022/02/21 03:19:35;;;;;;;62.53;28.32;;;;;;;0.21;83.95;99763.56;1771813;81;21293;-78
2022/02/21 03:22:44;;;;;;;51.65;25.20;;;;;;;0.22;84.14;99766.61;1740884;82;21903;-78
2022/02/21 03:25:49;;;;;;;60.60;25.97;;;;;;;0.24;84.35;99767.36;1740522;82;21333;-78
2022/02/21 03:28:54;;;;;;;48.83;24.15;;;;;;;0.27;84.47;99769.42;1740689;82;21907;-78
2022/02/21 03:31:59;;;;;;;50.80;25.08;;;;;;;0.29;84.48;99762.10;1740855;82;21308;-78
2022/02/21 03:35:04;;;;;;;64.05;26.55;;;;;;;0.28;84.66;99754.98;1740892;81;21316;-78
2022/02/21 03:38:10;;;;;;;48.28;25.85;;;;;;;0.24;84.85;99750.37;1740609;82;21317;-77
2022/02/21 03:41:16;;;;;;;50.15;24.82;;;;;;;0.25;85.19;99754.76;1739577;82;21320;-78
2022/02/21 03:44:22;;;;;;;49.35;23.98;;;;;;;0.29;85.36;99753.54;1739825;82;21773;-78
2022/02/21 03:47:29;;;;;;;57.08;26.60;;;;;;;0.31;85.40;99756.95;1739304;82;21312;-78
2022/02/21 03:50:34;;;;;;;56.28;26.05;;;;;;;0.30;85.44;99762.46;1740970;82;21868;-78
2022/02/21 03:53:41;;;;;;;51.77;25.90;;;;;;;0.29;85.70;99751.34;1738777;81;21230;-78
2022/02/21 03:56:48;;;;;;;57.15;26.50;;;;;;;0.31;85.91;99756.95;1728648;81;21330;-78
2022/02/21 03:59:54;;;;;;;54.73;26.65;;;;;;;0.33;86.10;99750.08;1729476;83;21203;-78
2022/02/21 04:03:03;;;;;;;61.75;26.62;;;;;;;0.37;86.29;99748.86;1730014;83;21849;-78
2022/02/21 04:06:09;;;;;;;64.85;28.15;;;;;;;0.44;86.21;99756.31;1729445;81;21972;-78
2022/02/21 04:09:14;;;;;;;57.88;23.83;;;;;;;0.51;86.04;99763.38;1730098;83;21834;-78
2022/02/21 04:12:21;;;;;;;60.30;26.12;;;;;;;0.56;85.90;99757.13;1730356;83;21198;-78
2022/02/21 04:15:26;;;;;;;48.20;22.73;;;;;;;0.57;85.85;99750.80;1730386;83;21247;-79
2022/02/21 04:18:32;;;;;;;46.48;24.12;;;;;;;0.58;85.68;99757.02;1730400;83;21325;-79
2022/02/21 04:21:39;;;;;;;55.60;24.70;;;;;;;0.51;85.58;99750.78;1730332;82;21333;-79
2022/02/21 04:24:45;;;;;;;46.88;23.40;;;;;;;0.49;85.79;99747.38;1735339;81;21262;-79
2022/02/21 04:27:56;;;;;;;57.15;26.40;;;;;;;0.50;85.76;99750.92;1760421;80;21344;-79
2022/02/21 04:31:01;;;;;;;50.95;25.70;;;;;;;0.47;85.82;99753.84;1761477;81;22195;-79
2022/02/21 04:34:07;;;;;;;50.80;25.52;;;;;;;0.47;85.77;99748.47;1760119;81;21209;-78
2022/02/21 04:37:13;;;;;;;56.50;24.67;;;;;;;0.49;85.56;99750.06;1759522;81;21944;-78
2022/02/21 04:40:21;;;;;;;53.17;24.70;;;;;;;0.48;85.47;99746.16;1760160;81;21306;-78
2022/02/21 04:43:27;;;;;;;49.77;23.00;;;;;;;0.45;85.47;99750.44;1760211;81;21357;-78
2022/02/21 04:46:33;;;;;;;56.40;22.85;;;;;;;0.43;85.62;99751.07;1759979;81;21368;-79
2022/02/21 04:49:39;;;;;;;45.80;23.95;;;;;;;0.40;85.64;99747.27;1731263;81;21317;-79
2022/02/21 04:52:45;;;;;;;47.65;22.10;;;;;;;0.33;85.63;99751.43;1760138;81;21315;-79
2022/02/21 04:55:52;;;;;;;46.88;21.90;;;;;;;0.28;85.61;99752.30;1768030;81;21335;-79
2022/02/21 04:58:58;;;;;;;47.85;22.58;;;;;;;0.18;85.87;99762.45;1774425;81;21356;-79
2022/02/21 05:02:04;;;;;;;53.58;22.80;;;;;;;0.11;85.93;99772.01;1774535;81;21300;-78
2022/02/21 05:05:11;;;;;;;41.88;20.55;;;;;;;0.09;85.99;99781.16;1774921;81;21824;-78
2022/02/21 05:08:17;;;;;;;43.60;20.57;;;;;;;0.06;86.08;99774.21;1775815;81;21285;-79
2022/02/21 05:11:16;;;;;;;45.88;20.57;;;;;;;0.13;87.25;99783.48;1775734;81;21846;-79
2022/02/21 05:14:21;;;;;;;45.40;20.30;;;;;;;0.24;87.72;99779.47;1775538;81;21666;-79
2022/02/21 05:17:27;;;;;;;42.62;20.57;;;;;;;0.34;87.92;99780.92;1775337;81;21273;-79
2022/02/21 05:20:19;;;;;;;43.70;20.48;;;;;;;0.38;88.07;99778.84;1774910;81;21285;-79
2022/02/21 05:23:23;;;;;;;45.48;20.77;;;;;;;0.44;88.25;99785.06;1775194;81;21883;-80
2022/02/21 05:26:29;;;;;;;41.30;19.27;;;;;;;0.49;88.32;99781.50;1774038;79;21201;-79
2022/02/21 05:29:35;;;;;;;40.43;18.45;;;;;;;0.56;88.40;99786.73;1774534;81;21391;-79
2022/02/21 05:32:40;;;;;;;43.13;17.37;;;;;;;0.63;88.34;99782.58;1771420;81;21304;-79
2022/02/21 05:35:46;;;;;;;37.23;17.55;;;;;;;0.67;88.24;99779.16;1772424;81;21608;-80
2022/02/21 05:38:51;;;;;;;32.83;16.07;;;;;;;0.72;88.27;99775.09;1767938;81;21174;-79
2022/02/21 05:41:56;;;;;;;45.12;18.82;;;;;;;0.79;88.37;99778.61;1772561;81;21816;-79
2022/02/21 05:45:00;;;;;;;36.63;18.95;;;;;;;0.88;88.43;99768.42;1773435;81;21324;-79
2022/02/21 05:48:06;;;;;;;41.28;18.25;;;;;;;0.97;88.47;99753.70;1770338;81;21297;-79
2022/02/21 05:51:11;;;;;;;37.45;18.50;;;;;;;1.09;88.47;99754.52;1769737;80;21314;-79
2022/02/21 05:54:16;;;;;;;38.28;19.05;;;;;;;1.24;88.35;99755.91;1765592;80;21297;-79
2022/02/21 05:57:21;;;;;;;38.05;17.32;;;;;;;1.34;88.10;99751.09;1763276;79;21749;-79
2022/02/21 06:00:28;;;;;;;34.95;17.60;;;;;;;1.41;87.95;99758.98;1761451;81;21247;-78
2022/02/21 06:03:33;;;;;;;41.23;18.50;;;;;;;1.49;87.84;99763.23;1772285;79;21626;-83
2022/02/21 06:06:39;;;;;;;43.40;18.27;;;;;;;1.55;87.80;99764.05;1760750;79;21654;-79
2022/02/21 06:09:46;;;;;;;41.15;17.82;;;;;;;1.62;87.75;99766.59;1763478;79;21301;-78
2022/02/21 06:12:53;;;;;;;36.42;16.82;;;;;;;1.67;87.83;99763.50;1762743;79;21225;-79
2022/02/21 06:15:59;;;;;;;38.53;19.40;;;;;;;1.73;87.83;99761.61;1766754;79;21296;-78
2022/02/21 06:19:04;;;;;;;46.65;19.30;;;;;;;1.81;87.80;99761.81;1764657;81;21544;-78
2022/02/21 06:22:10;;;;;;;44.58;19.92;;;;;;;1.89;87.70;99767.89;1763820;79;21816;-78
2022/02/21 06:25:16;;;;;;;40.67;17.62;;;;;;;1.95;87.72;99768.69;1760813;80;22239;-79
2022/02/21 06:28:16;;;;;;;39.25;17.85;;;;;;;2.03;87.67;99769.73;1758747;80;21872;-79
2022/02/21 06:31:24;;;;;;;39.33;17.52;;;;;;;2.14;87.50;99768.78;1762004;79;21336;-79
2022/02/21 06:34:30;;;;;;;31.93;16.12;;;;;;;2.24;87.54;99767.47;1763078;79;21174;-79
2022/02/21 06:37:36;;;;;;;37.10;16.55;;;;;;;2.33;87.19;99765.80;1764500;79;21552;-78
2022/02/21 06:40:44;;;;;;;35.85;16.05;;;;;;;2.43;87.30;99763.98;1762916;79;21336;-80
2022/02/21 06:43:50;;;;;;;34.45;16.37;;;;;;;2.52;87.22;99769.90;1762151;79;21589;-80
2022/02/21 06:46:55;;;;;;;30.23;15.90;;;;;;;2.63;87.07;99772.97;1759145;79;21717;-80
2022/02/21 06:50:01;;;;;;;40.25;18.02;;;;;;;2.76;86.89;99775.78;1763924;79;21557;-80
2022/02/21 06:53:07;;;;;;;33.15;16.62;;;;;;;2.87;86.29;99776.64;1762632;79;21380;-79
2022/02/21 06:56:23;;;;;;;34.25;15.88;;;;;;;2.97;86.11;99778.88;1762736;79;21362;-78
2022/02/21 06:59:24;;;;;;;40.50;16.40;;;;;;;3.11;86.04;99776.27;1730166;81;21203;-78
2022/02/21 07:02:31;;;;;;;37.42;16.77;;;;;;;3.20;85.94;99771.33;1734285;81;21262;-82
2022/02/21 07:05:40;;;;;;;25.07;13.50;;;;;;;3.30;85.55;99773.56;1733677;81;21286;-81
2022/02/21 07:08:46;;;;;;;31.52;16.00;;;;;;;3.38;85.21;99761.50;1731924;81;21204;-80
2022/02/21 07:11:55;;;;;;;35.60;15.78;;;;;;;3.49;84.91;99767.28;1732522;81;21235;-78
2022/02/21 07:15:02;;;;;;;32.03;14.45;;;;;;;3.61;84.59;99759.84;1732803;81;21225;-79
2022/02/21 07:18:10;;;;;;;41.15;15.58;;;;;;;3.70;83.89;99765.23;1735583;81;21373;-79
2022/02/21 07:21:15;;;;;;;35.03;15.75;;;;;;;3.78;83.71;99769.93;1737947;81;21756;-79
2022/02/21 07:24:20;;;;;;;36.03;15.58;;;;;;;3.87;83.69;99774.47;1739956;81;21324;-79
2022/02/21 07:27:25;;;;;;;28.32;14.55;;;;;;;3.97;83.56;99776.64;1737758;81;21281;-79
2022/02/21 07:30:31;;;;;;;33.13;15.53;;;;;;;4.10;83.33;99781.73;1733444;81;22012;-78
2022/02/21 07:33:36;;;;;;;30.32;15.15;;;;;;;4.25;83.11;99778.05;1743608;81;21410;-79
2022/02/21 07:36:44;;;;;;;35.83;15.18;;;;;;;4.40;82.86;99782.46;1735319;81;21463;-79
2022/02/21 07:39:48;;;;;;;26.75;14.15;;;;;;;4.52;82.59;99780.77;1732368;81;21330;-80
2022/02/21 07:42:58;;;;;;;37.45;14.85;;;;;;;4.68;82.10;99780.61;1735896;81;21614;-79
2022/02/21 07:46:04;;;;;;;37.38;14.18;;;;;;;4.80;81.29;99776.19;1735539;81;21512;-81
2022/02/21 07:49:13;;;;;;;23.57;12.93;;;;;;;4.90;80.67;99772.06;1731784;81;21247;-80
2022/02/21 07:52:20;;;;;;;21.30;12.60;;;;;;;5.01;79.95;99770.98;1731893;81;21515;-78
2022/02/21 07:55:29;;;;;;;27.42;13.53;;;;;;;5.08;79.39;99766.63;1738610;81;21318;-78
2022/02/21 07:58:35;;;;;;;22.45;12.40;;;;;;;5.16;79.01;99760.45;1743856;81;21472;-80
2022/02/21 08:01:47;;;;;;;26.60;13.03;;;;;;;5.28;78.82;99762.77;1728679;81;21442;-80
2022/02/21 08:04:57;;;;;;;25.25;13.43;;;;;;;5.39;78.26;99758.45;1704475;82;21334;-80
2022/02/21 08:08:02;;;;;;;25.90;13.18;;;;;;;5.51;77.86;99753.66;1729135;82;21260;-79
2022/02/21 08:11:10;;;;;;;28.62;13.45;;;;;;;5.61;77.76;99742.70;1728639;82;21310;-79
2022/02/21 08:14:19;;;;;;;29.00;12.05;;;;;;;5.75;77.98;99746.70;1730798;82;21346;-78
2022/02/21 08:17:26;;;;;;;25.17;11.40;;;;;;;5.86;76.98;99742.36;1731331;82;22124;-78
2022/02/21 08:20:40;;;;;;;28.17;13.30;;;;;;;5.98;76.71;99741.63;1732227;81;21847;-79
2022/02/21 08:23:46;;;;;;;25.80;12.75;;;;;;;6.08;76.58;99743.72;1726439;81;21198;-80
2022/02/21 08:26:51;;;;;;;25.68;11.20;;;;;;;6.14;75.86;99744.42;1734561;81;21506;-80
2022/02/21 08:29:57;;;;;;;23.55;11.10;;;;;;;6.21;75.19;99744.13;1726853;81;21303;-78
2022/02/21 08:33:04;;;;;;;24.50;11.80;;;;;;;6.30;75.22;99736.84;1733763;80;21682;-79
2022/02/21 08:36:10;;;;;;;19.07;10.28;;;;;;;6.38;73.83;99741.81;1730182;82;21299;-79
2022/02/21 08:39:17;;;;;;;22.30;11.97;;;;;;;6.45;73.07;99740.67;1733687;81;21772;-79
2022/02/21 08:42:23;;;;;;;23.27;11.70;;;;;;;6.53;73.61;99743.91;1732890;81;21811;-79
2022/02/21 08:45:29;;;;;;;20.17;11.00;;;;;;;6.63;74.14;99741.91;1731517;81;21942;-79
2022/02/21 08:48:33;;;;;;;19.48;11.30;;;;;;;6.77;74.18;99741.27;1732369;81;21268;-79
2022/02/21 08:51:38;;;;;;;22.07;10.45;;;;;;;6.87;73.30;99740.64;1730502;81;21185;-80
2022/02/21 08:54:43;;;;;;;23.87;12.50;;;;;;;6.97;71.94;99738.28;1731590;81;21173;-80
2022/02/21 08:57:51;;;;;;;23.38;12.13;;;;;;;7.06;72.16;99746.80;1731648;81;21370;-80
2022/02/21 09:00:57;;;;;;;26.10;13.62;;;;;;;7.15;72.11;99741.68;1731974;81;21232;-80
2022/02/21 09:04:01;;;;;;;26.77;11.10;;;;;;;7.25;71.80;99738.83;1730154;81;21345;-80
2022/02/21 09:07:11;;;;;;;21.57;11.83;;;;;;;7.34;71.41;99743.23;1714109;82;21200;-78
2022/02/21 09:10:21;;;;;;;22.70;12.10;;;;;;;7.41;70.67;99743.75;1663702;82;21152;-79
2022/02/21 09:13:28;;;;;;;22.02;10.82;;;;;;;7.46;70.21;99742.40;1730000;82;21157;-78
2022/02/21 09:16:36;;;;;;;24.12;10.78;;;;;;;7.46;68.88;99747.84;1728758;81;21704;-80
2022/02/21 09:19:46;;;;;;;23.12;10.45;;;;;;;7.49;69.15;99736.63;1697620;82;21974;-81
2022/02/21 09:22:56;;;;;;;23.27;10.08;;;;;;;7.55;68.38;99737.30;1713368;81;21204;-79
2022/02/21 09:26:21;;;;;;;19.05;10.25;;;;;;;7.65;68.65;99734.73;1716257;82;21361;-79
2022/02/21 09:29:31;;;;;;;24.67;10.45;;;;;;;7.74;66.12;99735.58;1729511;81;22240;-80
2022/02/21 09:32:41;;;;;;;20.72;10.23;;;;;;;7.79;66.50;99738.62;1729529;81;21952;-80
2022/02/21 09:36:02;;;;;;;19.87;9.55;;;;;;;7.85;66.24;99731.63;1711541;82;21200;-79
2022/02/21 09:39:13;;;;;;;16.17;8.30;;;;;;;7.91;65.40;99718.20;1727206;82;21332;-79
2022/02/21 09:42:19;;;;;;;23.05;10.35;;;;;;;7.96;64.43;99725.84;1728319;82;21514;-79
2022/02/21 09:45:23;;;;;;;17.95;9.15;;;;;;;8.00;63.35;99710.86;1730198;82;21362;-79
2022/02/21 09:48:29;;;;;;;17.73;9.10;;;;;;;8.05;62.60;99711.70;1727372;81;21697;-79
2022/02/21 09:51:35;;;;;;;16.80;8.95;;;;;;;8.11;61.48;99702.82;1728508;81;21388;-79
2022/02/21 09:54:42;;;;;;;26.40;11.68;;;;;;;8.16;62.22;99703.14;1728333;82;21773;-79
2022/02/21 09:57:50;;;;;;;21.42;10.43;;;;;;;8.18;61.68;99692.39;1689144;81;21303;-80
2022/02/21 10:00:59;;;;;;;20.85;9.23;;;;;;;8.20;60.80;99686.78;1730231;81;21216;-78
2022/02/21 10:04:09;;;;;;;19.50;9.70;;;;;;;8.23;62.42;99686.93;1710510;82;21314;-80
2022/02/21 10:07:25;;;;;;;22.37;8.88;;;;;;;8.29;62.30;99691.18;1725759;82;22369;-80
2022/02/21 10:10:35;;;;;;;29.02;9.58;;;;;;;8.32;62.40;99683.98;1709621;82;21247;-79
2022/02/21 10:13:39;;;;;;;18.15;9.35;;;;;;;8.37;61.90;99683.49;1730579;81;21286;-78
2022/02/21 10:16:54;;;;;;;18.30;8.80;;;;;;;8.41;61.15;99680.75;1699620;81;21157;-79
2022/02/21 10:20:20;;;;;;;19.80;8.48;;;;;;;8.45;61.09;99678.86;1728390;81;21149;-80
2022/02/21 10:23:26;;;;;;;17.62;8.95;;;;;;;8.49;58.98;99682.60;1731007;81;21347;-78
2022/02/21 10:26:37;;;;;;;20.72;9.20;;;;;;;8.50;59.21;99677.48;1730003;82;21299;-79
2022/02/21 10:30:00;;;;;;;19.77;8.53;;;;;;;8.55;59.69;99680.52;1715444;81;21602;-80
2022/02/21 10:33:29;;;;;;;15.03;7.60;;;;;;;8.57;60.28;99673.87;1705649;82;21357;-79
2022/02/21 10:36:53;;;;;;;13.18;7.42;;;;;;;8.60;58.33;99670.77;1703972;82;21359;-80
2022/02/21 10:40:35;;;;;;;17.42;7.72;;;;;;;8.65;58.85;99663.41;1733878;81;21324;-78
2022/02/21 10:43:46;;;;;;;16.05;7.47;;;;;;;8.67;59.17;99669.03;1701121;82;21197;-80
2022/02/21 10:47:13;;;;;;;21.93;8.20;;;;;;;8.71;58.83;99662.72;1725898;82;21292;-78
2022/02/21 10:50:21;;;;;;;15.50;7.03;;;;;;;8.76;58.65;99657.57;1725866;82;21219;-79
2022/02/21 10:53:27;;;;;;;15.70;8.00;;;;;;;8.81;60.03;99655.15;1728448;81;21353;-78
2022/02/21 10:56:36;;;;;;;15.88;8.03;;;;;;;8.84;59.89;99654.77;1728030;81;21604;-79
2022/02/21 10:59:42;;;;;;;15.83;7.12;;;;;;;8.88;59.07;99647.92;1728310;81;21259;-80
2022/02/21 11:02:51;;;;;;;12.88;6.03;;;;;;;8.93;58.72;99644.13;1727503;81;21210;-79
2022/02/21 11:06:02;;;;;;;13.03;7.62;;;;;;;8.94;57.18;99647.22;1727177;81;21284;-79
2022/02/21 11:09:10;;;;;;;15.20;7.72;;;;;;;8.97;58.72;99636.44;1729086;81;21200;-80
2022/02/21 11:12:39;;;;;;;16.52;8.45;;;;;;;9.04;58.84;99629.76;1726000;81;21208;-79
2022/02/21 11:15:48;;;;;;;15.65;8.20;;;;;;;9.07;59.09;99637.55;1732079;81;21740;-79
2022/02/21 11:18:55;;;;;;;14.55;7.65;;;;;;;9.08;59.10;99636.03;1727668;81;21228;-80
2022/02/21 11:22:03;;;;;;;15.28;7.40;;;;;;;9.12;56.87;99630.52;1729554;81;21192;-80
2022/02/21 11:25:35;;;;;;;16.85;8.05;;;;;;;9.16;56.18;99636.45;1729308;81;21262;-80
2022/02/21 11:28:55;;;;;;;16.97;8.50;;;;;;;9.18;55.83;99639.87;1726777;81;22221;-78
2022/02/21 11:32:08;;;;;;;16.45;8.88;;;;;;;9.18;56.04;99633.05;1717208;81;21157;-79
2022/02/21 11:35:31;;;;;;;18.07;9.80;;;;;;;9.17;55.96;99641.75;1699189;82;21776;-79
2022/02/21 11:39:29;;;;;;;23.45;8.68;;;;;;;9.15;58.13;99634.77;1710930;82;21205;-80
2022/02/21 11:42:44;;;;;;;13.58;6.30;;;;;;;9.19;57.18;99627.40;1696126;81;21889;-79
2022/02/21 11:46:34;;;;;;;13.60;5.10;;;;;;;9.23;53.84;99620.22;1706210;82;21378;-80
2022/02/21 11:50:03;;;;;;;11.10;5.62;;;;;;;9.23;53.29;99620.22;1730083;82;21236;-80
2022/02/21 11:53:32;;;;;;;13.60;6.50;;;;;;;9.28;53.28;99618.63;1702289;82;21335;-81
2022/02/21 11:57:06;;;;;;;12.00;5.83;;;;;;;9.34;54.29;99611.05;1711588;82;21342;-80
2022/02/21 12:00:51;;;;;;;11.57;5.70;;;;;;;9.36;54.20;99610.37;1698262;82;21315;-79
2022/02/21 12:04:21;;;;;;;13.22;6.33;;;;;;;9.39;54.44;99600.42;1729826;81;21319;-79
2022/02/21 12:07:44;;;;;;;14.35;6.42;;;;;;;9.42;54.20;99597.34;1727546;81;21201;-80
2022/02/21 12:11:18;;;;;;;13.03;6.70;;;;;;;9.44;53.79;99607.53;1707327;82;21261;-79
2022/02/21 12:14:33;;;;;;;15.15;6.58;;;;;;;9.45;53.56;99603.77;1718937;81;21185;-79
2022/02/21 12:17:43;;;;;;;11.95;6.28;;;;;;;9.44;53.24;99593.89;1725224;82;21355;-80
2022/02/21 12:21:31;;;;;;;10.45;5.80;;;;;;;9.45;54.22;99600.19;1731659;82;21383;-79
2022/02/21 12:24:40;;;;;;;13.60;6.22;;;;;;;9.44;53.99;99593.89;1698158;82;21968;-79
2022/02/21 12:28:18;;;;;;;9.53;5.30;;;;;;;9.45;54.46;99592.00;1671902;82;21342;-79
2022/02/21 12:31:32;;;;;;;15.83;7.10;;;;;;;9.46;54.43;99589.11;1720405;82;21213;-80
2022/02/21 12:34:50;;;;;;;15.48;7.15;;;;;;;9.42;55.24;99580.95;1670661;81;21524;-80
2022/02/21 12:38:24;;;;;;;12.60;6.55;;;;;;;9.45;55.05;99579.72;1725834;81;21198;-80
2022/02/21 12:45:28;;;;;;;13.78;6.90;;;;;;;9.48;53.56;99581.56;1893730;73;28411;-78
2022/02/21 12:48:34;;;;;;;20.82;7.55;;;;;;;9.43;53.77;99580.44;1869221;75;21257;-76
2022/02/21 12:51:45;;;;;;;12.47;6.85;;;;;;;9.45;54.59;99575.10;1798798;77;21910;-76
2022/02/21 12:55:04;;;;;;;13.48;6.95;;;;;;;9.44;54.61;99573.41;1797824;78;21377;-86
2022/02/21 12:58:11;;;;;;;16.15;7.90;;;;;;;9.46;54.92;99570.00;1792695;78;21156;-87
2022/02/21 13:01:23;;;;;;;19.02;8.50;;;;;;;9.50;55.19;99570.97;1773782;79;21397;-76
2022/02/21 13:04:31;;;;;;;13.90;7.95;;;;;;;9.44;55.22;99568.48;1801757;79;21601;-76
2022/02/21 13:07:39;;;;;;;13.15;7.37;;;;;;;9.39;55.19;99567.67;1780676;77;21298;-76
2022/02/21 13:10:51;;;;;;;13.65;7.03;;;;;;;9.37;55.27;99557.47;1797120;78;21514;-85
2022/02/21 13:14:01;;;;;;;17.62;7.78;;;;;;;9.39;54.87;99564.94;1799751;77;22411;-83
2022/02/21 13:17:14;;;;;;;14.70;6.95;;;;;;;9.40;53.62;99553.50;1799081;77;21303;-85
2022/02/21 13:20:23;;;;;;;13.68;6.87;;;;;;;9.39;53.25;99563.58;1798307;79;21168;-84
2022/02/21 13:23:30;;;;;;;15.65;6.85;;;;;;;9.36;53.23;99559.87;1804706;78;21693;-85
2022/02/21 13:26:35;;;;;;;14.30;6.28;;;;;;;9.28;53.65;99559.95;1801197;78;21298;-85
2022/02/21 13:29:49;;;;;;;13.08;6.20;;;;;;;9.21;52.48;99557.10;1798705;78;21386;-86
2022/02/21 13:32:55;;;;;;;16.82;6.83;;;;;;;9.14;53.00;99563.51;1805269;78;21338;-85
2022/02/21 13:36:06;;;;;;;15.00;6.83;;;;;;;9.07;52.91;99566.63;1798205;78;21348;-85
2022/02/21 13:39:12;;;;;;;15.55;5.87;;;;;;;9.03;53.20;99569.39;1797869;78;21698;-85
2022/02/21 13:42:45;;;;;;;10.75;5.50;;;;;;;8.99;52.43;99574.87;1794894;77;21592;-84
2022/02/21 13:45:57;;;;;;;9.80;5.05;;;;;;;8.93;51.82;99569.13;1803218;78;21500;-85
2022/02/21 13:49:02;;;;;;;12.90;5.42;;;;;;;8.88;51.88;99564.73;1833272;76;21487;-86
2022/02/21 13:52:16;;;;;;;11.55;5.03;;;;;;;8.85;52.13;99567.01;1814639;77;21293;-85
2022/02/21 13:55:37;;;;;;;10.80;4.90;;;;;;;8.81;52.55;99572.49;1831436;76;21653;-85
2022/02/21 13:58:47;;;;;;;10.58;4.67;;;;;;;8.78;52.33;99569.60;1806187;77;21290;-86
2022/02/21 14:01:55;;;;;;;;;;;;;;;8.74;52.92;99570.99;1805716;77;21818;-85
2022/02/21 14:05:15;;;;;;;9.55;4.03;;;;;;;8.68;52.76;99560.31;1807576;77;20215;-84
2022/02/21 14:08:20;;;;;;;10.15;4.75;;;;;;;8.64;52.26;99570.39;1801520;78;21302;-76
2022/02/21 14:11:31;;;;;;;11.60;4.00;;;;;;;8.60;52.80;99562.25;1805601;77;21318;-86
2022/02/21 14:14:36;;;;;;;6.97;4.28;;;;;;;8.55;53.42;99562.79;1805859;77;21208;-86
2022/02/21 14:17:41;;;;;;;15.40;4.53;;;;;;;8.51;53.72;99568.78;1770274;78;21290;-86
2022/02/21 14:20:47;;;;;;;8.25;4.60;;;;;;;8.44;53.58;99562.70;1801213;78;21655;-86
2022/02/21 14:23:53;;;;;;;11.35;3.95;;;;;;;8.38;53.57;99567.52;1808935;78;21172;-86
2022/02/21 14:26:59;;;;;;;6.87;3.62;;;;;;;8.31;53.34;99560.20;1807044;77;21329;-76
2022/02/21 14:30:04;;;;;;;10.32;4.00;;;;;;;8.22;53.19;99560.77;1804517;77;21236;-85
2022/02/21 14:33:10;;;;;;;9.18;3.72;;;;;;;8.15;53.50;99565.24;1807801;77;22136;-85
2022/02/21 14:36:16;;;;;;;8.48;4.20;;;;;;;8.08;53.33;99553.35;1808336;78;21274;-84
2022/02/21 14:39:22;;;;;;;8.43;3.65;;;;;;;8.02;53.66;99552.72;1807437;78;21282;-84
2022/02/21 14:42:29;;;;;;;11.12;3.90;;;;;;;7.92;54.07;99552.42;1819419;78;21843;-76
2022/02/21 14:45:35;;;;;;;8.30;3.90;;;;;;;7.84;54.58;99555.17;1800755;77;21366;-85
2022/02/21 14:48:42;;;;;;;7.62;3.37;;;;;;;7.73;54.89;99546.05;1844235;76;21151;-85